Time;durP1;ratioP1;P1;durP2;ratioP2;P2;SDS_P1;SDS_P2;PMS_P1;PMS_P2;Temp;Humidity;BMP_temperature;BMP_pressure;BME280_temperature;BME280_humidity;BME280_pressure;Samples;Min_cycle;Max_cycle;Signal;HPM_P1;HPM_P2
2023/03/05 00:02:18;;;;;;;19.20;8.90;;;;;;;-0.56;81.12;98254.38;435555;1253;97879;-40
2023/03/05 00:12:26;;;;;;;20.90;9.40;;;;;;;-0.66;81.02;98245.65;435594;1253;110786;-40
2023/03/05 00:22:35;;;;;;;20.40;8.80;;;;;;;-0.72;81.00;98241.58;435566;1253;107378;-39
2023/03/05 00:42:47;;;;;;;27.10;8.00;;;;;;;-0.84;80.61;98234.21;435704;1250;97464;-41
2023/03/05 00:52:55;;;;;;;16.70;7.30;;;;;;;-0.87;80.34;98228.91;435689;1253;108570;-40
2023/03/05 01:03:02;;;;;;;14.90;6.20;;;;;;;-0.94;80.22;98218.23;435729;1249;97455;-40
2023/03/05 01:13:10;;;;;;;17.80;6.00;;;;;;;-0.95;80.34;98210.37;435675;1253;109885;-40
2023/03/05 01:23:17;;;;;;;16.00;8.50;;;;;;;-1.00;80.02;98193.05;435594;1253;108140;-41
2023/03/05 01:33:24;;;;;;;19.60;6.30;;;;;;;-0.99;79.77;98183.77;435564;1251;96597;-39
2023/03/05 01:43:32;;;;;;;15.80;6.10;;;;;;;-0.92;79.51;98172.38;435650;1250;108517;-40
2023/03/05 01:53:40;;;;;;;16.80;6.90;;;;;;;-0.86;79.78;98168.56;435770;1252;97899;-40
2023/03/05 02:03:48;;;;;;;19.00;10.10;;;;;;;-0.89;79.69;98161.63;435624;1253;97835;-40
2023/03/05 02:13:56;;;;;;;16.10;6.90;;;;;;;-0.85;79.54;98160.54;435607;1253;109030;-40
2023/03/05 02:34:40;;;;;;;17.50;7.90;;;;;;;-0.99;79.48;98142.80;433151;1259;97846;-40
2023/03/05 02:44:47;;;;;;;16.20;6.50;;;;;;;-1.05;79.48;98139.52;433646;1259;97877;-40
2023/03/05 02:54:55;;;;;;;16.60;5.40;;;;;;;-1.06;79.35;98126.13;433394;1261;109612;-39
2023/03/05 03:05:02;;;;;;;13.60;5.30;;;;;;;-1.13;79.20;98115.21;433398;1264;97700;-40
2023/03/05 03:25:18;;;;;;;9.00;4.10;;;;;;;-0.99;79.28;98105.92;433406;1263;107672;-40
2023/03/05 03:35:25;;;;;;;13.80;4.00;;;;;;;-0.88;79.44;98097.68;433146;1261;377735;-40
2023/03/05 03:45:32;;;;;;;8.20;4.60;;;;;;;-0.94;79.16;98080.63;433522;1261;109572;-39
2023/03/05 04:05:45;;;;;;;11.80;6.00;;;;;;;-1.07;78.97;98072.23;433419;1262;97877;-39
2023/03/05 04:15:52;;;;;;;12.50;5.70;;;;;;;-1.10;78.80;98064.30;433542;1259;97883;-40
2023/03/05 04:25:58;;;;;;;6.60;3.10;;;;;;;-1.20;78.60;98060.62;433444;1261;107197;-39
2023/03/05 04:36:06;;;;;;;5.80;2.10;;;;;;;-1.15;78.40;98061.29;433322;1263;97883;-40
2023/03/05 04:46:14;;;;;;;11.20;2.90;;;;;;;-1.11;78.14;98044.56;433305;1261;109596;-43
2023/03/05 04:56:21;;;;;;;9.30;3.30;;;;;;;-1.15;78.00;98038.29;433298;1259;107576;-40
2023/03/05 05:06:28;;;;;;;7.80;3.60;;;;;;;-1.19;78.05;98034.86;433381;1261;97992;-39
2023/03/05 05:16:35;;;;;;;8.90;4.20;;;;;;;-1.24;77.82;98027.62;433372;1259;110656;-40
2023/03/05 05:26:43;;;;;;;10.80;5.20;;;;;;;-1.31;77.61;98032.01;433242;1261;107865;-40
2023/03/05 05:36:50;;;;;;;6.40;3.00;;;;;;;-1.35;77.47;98031.96;433343;1258;97869;-39
2023/03/05 05:46:57;;;;;;;6.60;2.80;;;;;;;-1.27;77.47;98030.20;433310;1259;110775;-39
2023/03/05 05:57:05;;;;;;;10.00;3.10;;;;;;;-1.16;77.63;98017.64;433328;1259;109440;-40
2023/03/05 06:07:11;;;;;;;9.80;3.40;;;;;;;-1.21;77.94;97995.48;433283;1261;97931;-40
2023/03/05 06:17:19;;;;;;;8.50;4.40;;;;;;;-1.23;78.12;98003.46;433351;1262;109896;-40
2023/03/05 06:27:37;;;;;;;12.30;5.80;;;;;;;-1.28;78.08;98008.70;433236;1262;107619;-39
2023/03/05 06:37:44;;;;;;;14.10;6.70;;;;;;;-1.22;78.21;97996.16;433326;1265;97877;-40
2023/03/05 06:47:52;;;;;;;16.80;7.40;;;;;;;-1.07;78.25;97990.99;433341;1261;110418;-40
2023/03/05 06:57:59;;;;;;;26.90;8.50;;;;;;;-0.90;78.74;97987.67;433341;1261;107857;-41
2023/03/05 07:08:06;;;;;;;12.30;6.60;;;;;;;-0.72;78.91;97979.60;433374;1261;96647;-40
2023/03/05 07:28:19;;;;;;;17.60;7.00;;;;;;;-0.75;78.99;97969.29;433394;1261;108408;-41
2023/03/05 07:38:27;;;;;;;23.00;9.50;;;;;;;-0.73;79.01;97969.09;433281;1261;107049;-40
2023/03/05 07:48:35;;;;;;;19.10;7.90;;;;;;;-0.61;78.88;97953.39;433439;1259;97905;-40
2023/03/05 07:58:42;;;;;;;17.10;6.40;;;;;;;-0.39;78.94;97949.45;433420;1264;109397;-40
2023/03/05 08:08:51;;;;;;;18.10;7.60;;;;;;;-0.13;79.22;97936.70;433348;1259;108176;-40
2023/03/05 08:18:59;;;;;;;19.20;7.30;;;;;;;0.09;79.24;97921.12;433433;1263;97887;-41
2023/03/05 08:29:07;;;;;;;20.30;7.80;;;;;;;0.42;79.30;97906.51;434221;1260;109067;-40
2023/03/05 08:39:14;;;;;;;16.60;8.10;;;;;;;0.59;79.20;97902.47;434305;1260;106962;-40
2023/03/05 08:49:21;;;;;;;15.60;8.10;;;;;;;0.67;79.14;97893.30;434284;1259;96706;-41
2023/03/05 08:59:29;;;;;;;15.20;7.80;;;;;;;0.77;79.17;97884.33;434159;1260;110538;-40
2023/03/05 09:09:37;;;;;;;26.90;11.90;;;;;;;0.66;79.38;97870.20;434192;1260;109428;-39
2023/03/05 09:19:44;;;;;;;27.90;12.50;;;;;;;0.42;79.80;97882.59;434223;1257;97491;-39
2023/03/05 09:39:58;;;;;;;23.90;12.00;;;;;;;0.19;80.40;97888.48;434177;1259;106599;-39
2023/03/05 09:50:12;;;;;;;35.70;18.50;;;;;;;0.25;81.06;97880.96;434035;1259;97911;-41
2023/03/05 10:00:23;;;;;;;25.10;13.30;;;;;;;0.47;81.20;97878.31;434179;1259;111154;-39
2023/03/05 10:10:40;;;;;;;49.10;18.80;;;;;;;0.72;81.32;97874.59;434121;1258;108052;-39
2023/03/05 10:20:55;;;;;;;45.00;17.70;;;;;;;1.13;81.52;97858.97;434266;1261;97911;-40
2023/03/05 10:31:18;;;;;;;19.00;9.00;;;;;;;1.59;81.41;97849.14;434056;1260;109665;-40
2023/03/05 10:41:25;;;;;;;26.70;11.00;;;;;;;1.93;80.88;97834.54;434124;1257;108378;-40
2023/03/05 10:51:30;;;;;;;19.10;9.00;;;;;;;1.76;80.62;97818.85;434113;1260;97914;-40
2023/03/05 11:01:38;;;;;;;20.70;9.80;;;;;;;1.20;80.48;97820.64;434202;1262;109287;-40
2023/03/05 11:12:01;;;;;;;29.80;12.70;;;;;;;0.86;80.49;97818.62;434754;1260;108875;-41
2023/03/05 11:22:06;;;;;;;10.90;5.30;;;;;;;0.79;80.26;97810.96;437075;1270;97513;-43
2023/03/05 11:32:23;;;;;;;16.00;5.90;;;;;;;1.02;79.88;97796.88;437231;1261;108573;-40
2023/03/05 11:42:31;;;;;;;17.00;7.50;;;;;;;1.62;79.51;97780.67;436696;1262;107079;-40
2023/03/05 11:52:36;;;;;;;15.70;7.10;;;;;;;1.54;78.55;97774.41;436773;1261;107482;-40
2023/03/05 12:02:53;;;;;;;14.80;5.70;;;;;;;1.40;77.11;97772.71;437534;1261;97501;-39
2023/03/05 12:13:04;;;;;;;14.80;4.10;;;;;;;1.58;77.09;97764.85;437817;1260;97481;-40
2023/03/05 12:23:12;;;;;;;7.40;4.40;;;;;;;1.74;76.69;97761.07;437418;1260;108504;-40
2023/03/05 12:33:29;;;;;;;36.70;14.20;;;;;;;1.50;76.34;97764.97;437798;1260;96671;-41
2023/03/05 12:43:37;;;;;;;17.30;9.40;;;;;;;1.15;76.26;97785.30;437121;1257;97915;-39
2023/03/05 13:03:54;;;;;;;14.50;7.60;;;;;;;1.08;77.80;97755.07;437546;1258;106528;-40
2023/03/05 13:14:02;;;;;;;14.70;8.40;;;;;;;1.35;78.01;97746.77;437469;1257;97508;-40
2023/03/05 13:24:15;;;;;;;28.10;13.20;;;;;;;1.39;78.08;97744.27;437305;1260;109985;-40
2023/03/05 13:34:25;;;;;;;17.10;8.90;;;;;;;1.46;77.94;97743.46;437462;1260;107947;-40
2023/03/05 13:44:53;;;;;;;8.10;4.00;;;;;;;1.34;77.27;97743.08;437694;1261;108471;-40
2023/03/05 13:55:02;;;;;;;9.10;4.40;;;;;;;1.28;77.07;97738.13;437175;1257;97274;-40
2023/03/05 14:05:13;;;;;;;21.50;9.10;;;;;;;1.27;77.09;97734.16;437542;1260;110992;-40
2023/03/05 14:15:26;;;;;;;29.80;13.20;;;;;;;1.17;77.14;97729.30;437087;1260;110645;-41
2023/03/05 14:25:39;;;;;;;32.40;14.70;;;;;;;1.03;77.23;97725.05;437559;1260;108771;-41
2023/03/05 14:35:50;;;;;;;27.30;11.30;;;;;;;0.87;77.11;97719.96;436236;1260;97580;-39
2023/03/05 14:45:57;;;;;;;16.90;7.00;;;;;;;0.81;77.11;97712.52;436451;1261;97488;-40
2023/03/05 14:56:05;;;;;;;15.00;6.40;;;;;;;0.79;77.34;97712.52;437319;1257;107603;-40
2023/03/05 15:06:14;;;;;;;23.00;10.90;;;;;;;0.66;77.67;97707.70;437120;1257;97512;-40
2023/03/05 15:16:22;;;;;;;18.30;9.40;;;;;;;0.39;77.98;97716.64;437517;1260;97512;-41
2023/03/05 15:26:29;;;;;;;124.00;34.20;;;;;;;0.12;78.41;97710.64;437741;1257;109797;-40
2023/03/05 15:36:36;;;;;;;52.80;22.60;;;;;;;-0.07;79.00;97705.80;436861;1260;731569;-40
2023/03/05 15:46:44;;;;;;;73.60;27.90;;;;;;;-0.08;79.23;97708.88;437737;1260;97393;-40
2023/03/05 15:56:52;;;;;;;55.30;24.40;;;;;;;0.00;79.56;97709.44;437282;1261;109761;-40
2023/03/05 16:07:03;;;;;;;46.80;16.70;;;;;;;0.00;79.76;97715.33;437641;1260;107556;-41
2023/03/05 16:17:11;;;;;;;66.40;23.60;;;;;;;-0.15;79.94;97731.23;437821;1257;106708;-39
2023/03/05 16:27:18;;;;;;;41.20;16.90;;;;;;;-0.35;80.14;97723.58;437557;1261;97448;-40
2023/03/05 16:37:26;;;;;;;49.10;20.30;;;;;;;-0.49;80.30;97709.02;437771;1260;97513;-40
2023/03/05 16:47:35;;;;;;;85.80;31.20;;;;;;;-0.43;80.34;97701.77;437456;1260;111017;-39
2023/03/05 16:57:42;;;;;;;61.00;23.20;;;;;;;-0.33;80.49;97704.98;436623;1260;107169;-39
2023/03/05 17:07:49;;;;;;;140.20;47.80;;;;;;;-0.37;80.57;97709.77;435775;1260;97507;-41
2023/03/05 17:17:56;;;;;;;82.60;24.90;;;;;;;-0.51;80.74;97710.95;434018;1261;96621;-40
2023/03/05 17:28:04;;;;;;;64.80;25.20;;;;;;;-0.65;80.68;97717.62;433951;1260;109400;-40
2023/03/05 17:48:16;;;;;;;39.40;18.70;;;;;;;-0.69;80.79;97719.13;433986;1256;97866;-40
2023/03/05 17:58:22;;;;;;;16.20;7.70;;;;;;;-0.69;80.85;97722.41;434159;1259;109952;-39
2023/03/05 18:08:28;;;;;;;55.90;22.30;;;;;;;-0.80;80.84;97720.27;434196;1260;108494;-40
2023/03/05 18:18:36;;;;;;;107.80;37.20;;;;;;;-0.89;80.99;97714.44;434054;1260;97909;-40
2023/03/05 18:28:43;;;;;;;127.50;39.00;;;;;;;-1.00;80.82;97715.48;434158;1259;97982;-39
2023/03/05 18:38:50;;;;;;;53.00;20.60;;;;;;;-0.98;80.95;97717.66;433983;1261;109554;-39
2023/03/05 18:48:58;;;;;;;140.00;58.50;;;;;;;-0.87;81.07;97714.98;434086;1256;108308;-40
2023/03/05 18:59:05;;;;;;;70.80;28.20;;;;;;;-0.75;81.12;97697.35;434156;1261;97885;-40
2023/03/05 19:09:15;;;;;;;47.70;20.10;;;;;;;-0.74;81.24;97701.92;434182;1260;108540;-41
2023/03/05 19:19:23;;;;;;;43.10;19.00;;;;;;;-0.86;81.33;97713.19;434162;1259;97420;-40
2023/03/05 19:29:31;;;;;;;48.20;21.50;;;;;;;-0.95;81.56;97715.10;434165;1256;97906;-41
2023/03/05 19:39:38;;;;;;;24.30;13.00;;;;;;;-1.02;81.50;97701.67;434086;1260;110350;-40
2023/03/05 19:49:46;;;;;;;28.20;9.60;;;;;;;-1.00;81.56;97698.71;434054;1260;108475;-39
2023/03/05 19:59:51;;;;;;;18.90;10.30;;;;;;;-0.92;81.64;97689.13;434170;1255;98355;-40
2023/03/05 20:09:59;;;;;;;17.40;7.80;;;;;;;-0.81;81.61;97679.48;434115;1260;111137;-38
2023/03/05 20:20:09;;;;;;;20.20;8.60;;;;;;;-0.72;81.89;97670.15;434142;1258;106765;-40
2023/03/05 20:30:16;;;;;;;22.90;11.80;;;;;;;-0.86;81.86;97671.77;434248;1260;96653;-41
2023/03/05 20:40:23;;;;;;;31.40;13.30;;;;;;;-0.97;81.79;97670.77;434118;1259;110245;-39
2023/03/05 20:50:32;;;;;;;22.60;9.90;;;;;;;-1.09;82.01;97673.89;434222;1260;108597;-40
2023/03/05 21:00:40;;;;;;;47.30;19.90;;;;;;;-1.09;82.02;97678.03;434066;1260;97396;-43
2023/03/05 21:10:48;;;;;;;34.00;15.10;;;;;;;-1.02;81.96;97666.42;434160;1255;109931;-40
2023/03/05 21:20:56;;;;;;;30.00;14.80;;;;;;;-0.94;82.09;97668.62;434091;1257;107247;-39
2023/03/05 21:31:07;;;;;;;42.70;20.70;;;;;;;-0.88;82.54;97666.22;434210;1258;97624;-39
2023/03/05 21:41:16;;;;;;;45.20;21.60;;;;;;;-0.93;82.48;97660.38;434176;1260;109907;-39
2023/03/05 22:01:30;;;;;;;85.90;31.30;;;;;;;-1.20;82.38;97652.46;435772;1260;97459;-38
2023/03/05 22:11:40;;;;;;;53.30;25.80;;;;;;;-1.34;82.41;97657.39;437498;1260;96636;-39
2023/03/05 22:21:46;;;;;;;;;;;;;;;-1.31;82.55;97644.09;438037;1257;110030;-39
2023/03/05 22:31:55;;;;;;;52.20;24.90;;;;;;;-1.22;82.47;97632.48;436720;1256;108428;-38
2023/03/05 22:42:03;;;;;;;35.80;19.90;;;;;;;-1.08;82.54;97635.30;437949;1256;98012;-39
2023/03/05 22:52:09;;;;;;;55.40;24.30;;;;;;;-1.10;82.63;97638.15;438055;1260;108058;-40
2023/03/05 23:02:16;;;;;;;37.90;21.20;;;;;;;-1.19;82.79;97631.41;437915;1260;107250;-40
2023/03/05 23:12:25;;;;;;;36.20;19.20;;;;;;;-1.32;82.88;97630.33;435809;1255;96704;-39
2023/03/05 23:22:32;;;;;;;40.90;19.80;;;;;;;-1.41;82.90;97622.29;434105;1259;97575;-40
2023/03/05 23:32:40;;;;;;;47.10;24.60;;;;;;;-1.41;83.00;97623.16;436010;1260;111523;-41
2023/03/05 23:42:47;;;;;;;43.80;23.30;;;;;;;-1.35;82.99;97619.79;435565;1261;107936;-39
2023/03/05 23:52:55;;;;;;;35.40;17.90;;;;;;;-1.27;83.06;97616.48;436082;1256;97494;-41
